sensor_id;sensor_type;location;lat;lon;timestamp;P1;durP1;ratioP1;P2;durP2;ratioP2
84527;SDS011;74768;51.152;6.196;2024-02-14T00:01:14;5.85;;;1.83;;
84527;SDS011;74768;51.152;6.196;2024-02-14T00:03:39;5.60;;;2.23;;
84527;SDS011;74768;51.152;6.196;2024-02-14T00:06:05;3.88;;;1.70;;
84527;SDS011;74768;51.152;6.196;2024-02-14T00:08:30;2.70;;;1.42;;
84527;SDS011;74768;51.152;6.196;2024-02-14T00:10:56;3.20;;;1.67;;
84527;SDS011;74768;51.152;6.196;2024-02-14T00:13:21;3.23;;;1.90;;
84527;SDS011;74768;51.152;6.196;2024-02-14T00:15:47;3.10;;;1.60;;
84527;SDS011;74768;51.152;6.196;2024-02-14T00:18:12;1.97;;;1.47;;
84527;SDS011;74768;51.152;6.196;2024-02-14T00:20:37;3.70;;;2.10;;
84527;SDS011;74768;51.152;6.196;2024-02-14T00:23:04;4.30;;;1.75;;
84527;SDS011;74768;51.152;6.196;2024-02-14T00:25:29;3.25;;;1.70;;
84527;SDS011;74768;51.152;6.196;2024-02-14T00:27:55;3.28;;;1.63;;
84527;SDS011;74768;51.152;6.196;2024-02-14T00:30:20;4.03;;;1.55;;
84527;SDS011;74768;51.152;6.196;2024-02-14T00:32:48;2.63;;;1.55;;
84527;SDS011;74768;51.152;6.196;2024-02-14T00:35:13;2.97;;;1.60;;
84527;SDS011;74768;51.152;6.196;2024-02-14T00:37:38;8.50;;;1.77;;
84527;SDS011;74768;51.152;6.196;2024-02-14T00:40:04;2.83;;;1.57;;
84527;SDS011;74768;51.152;6.196;2024-02-14T00:42:30;2.95;;;1.75;;
84527;SDS011;74768;51.152;6.196;2024-02-14T00:44:56;4.65;;;1.83;;
84527;SDS011;74768;51.152;6.196;2024-02-14T00:47:21;4.07;;;2.20;;
84527;SDS011;74768;51.152;6.196;2024-02-14T00:49:47;3.22;;;1.65;;
84527;SDS011;74768;51.152;6.196;2024-02-14T00:52:12;4.17;;;1.83;;
84527;SDS011;74768;51.152;6.196;2024-02-14T00:54:37;2.80;;;1.67;;
84527;SDS011;74768;51.152;6.196;2024-02-14T00:57:03;2.65;;;1.70;;
84527;SDS011;74768;51.152;6.196;2024-02-14T00:59:28;5.43;;;2.22;;
84527;SDS011;74768;51.152;6.196;2024-02-14T01:01:53;3.35;;;2.17;;
84527;SDS011;74768;51.152;6.196;2024-02-14T01:04:19;2.30;;;1.60;;
84527;SDS011;74768;51.152;6.196;2024-02-14T01:06:44;5.60;;;2.10;;
84527;SDS011;74768;51.152;6.196;2024-02-14T01:09:09;3.07;;;1.77;;
84527;SDS011;74768;51.152;6.196;2024-02-14T01:11:34;4.47;;;1.70;;
84527;SDS011;74768;51.152;6.196;2024-02-14T01:14:01;4.47;;;2.20;;
84527;SDS011;74768;51.152;6.196;2024-02-14T01:16:26;3.58;;;1.90;;
84527;SDS011;74768;51.152;6.196;2024-02-14T01:18:52;3.78;;;2.00;;
84527;SDS011;74768;51.152;6.196;2024-02-14T01:21:19;5.20;;;1.98;;
84527;SDS011;74768;51.152;6.196;2024-02-14T01:23:44;2.42;;;1.75;;
84527;SDS011;74768;51.152;6.196;2024-02-14T01:26:10;3.15;;;1.70;;
84527;SDS011;74768;51.152;6.196;2024-02-14T01:28:35;4.30;;;1.80;;
84527;SDS011;74768;51.152;6.196;2024-02-14T01:31:00;3.03;;;1.67;;
84527;SDS011;74768;51.152;6.196;2024-02-14T01:33:26;2.97;;;1.77;;
84527;SDS011;74768;51.152;6.196;2024-02-14T01:35:51;4.43;;;1.70;;
84527;SDS011;74768;51.152;6.196;2024-02-14T01:38:16;1.92;;;1.50;;
84527;SDS011;74768;51.152;6.196;2024-02-14T01:40:42;5.50;;;1.70;;
84527;SDS011;74768;51.152;6.196;2024-02-14T01:43:09;4.07;;;1.80;;
84527;SDS011;74768;51.152;6.196;2024-02-14T01:45:35;2.90;;;1.70;;
84527;SDS011;74768;51.152;6.196;2024-02-14T01:48:00;3.70;;;1.87;;
84527;SDS011;74768;51.152;6.196;2024-02-14T01:50:26;2.85;;;1.73;;
84527;SDS011;74768;51.152;6.196;2024-02-14T01:52:57;7.07;;;1.98;;
84527;SDS011;74768;51.152;6.196;2024-02-14T01:55:24;2.78;;;1.73;;
84527;SDS011;74768;51.152;6.196;2024-02-14T01:57:51;3.10;;;1.60;;
84527;SDS011;74768;51.152;6.196;2024-02-14T02:00:17;3.90;;;1.77;;
84527;SDS011;74768;51.152;6.196;2024-02-14T02:02:43;4.20;;;2.05;;
84527;SDS011;74768;51.152;6.196;2024-02-14T02:05:09;2.40;;;1.65;;
84527;SDS011;74768;51.152;6.196;2024-02-14T02:07:35;2.80;;;1.70;;
84527;SDS011;74768;51.152;6.196;2024-02-14T02:10:04;4.60;;;1.70;;
84527;SDS011;74768;51.152;6.196;2024-02-14T02:12:30;3.88;;;1.80;;
84527;SDS011;74768;51.152;6.196;2024-02-14T02:14:55;3.22;;;1.92;;
84527;SDS011;74768;51.152;6.196;2024-02-14T02:17:21;2.27;;;1.60;;
84527;SDS011;74768;51.152;6.196;2024-02-14T02:19:46;2.50;;;1.90;;
84527;SDS011;74768;51.152;6.196;2024-02-14T02:22:12;3.28;;;1.90;;
84527;SDS011;74768;51.152;6.196;2024-02-14T02:24:37;5.85;;;3.28;;
84527;SDS011;74768;51.152;6.196;2024-02-14T02:27:03;2.57;;;1.80;;
84527;SDS011;74768;51.152;6.196;2024-02-14T02:29:28;2.70;;;2.10;;
84527;SDS011;74768;51.152;6.196;2024-02-14T02:31:54;3.92;;;2.22;;
84527;SDS011;74768;51.152;6.196;2024-02-14T02:34:19;4.78;;;2.13;;
84527;SDS011;74768;51.152;6.196;2024-02-14T02:36:44;2.83;;;1.70;;
84527;SDS011;74768;51.152;6.196;2024-02-14T02:39:11;6.53;;;2.33;;
84527;SDS011;74768;51.152;6.196;2024-02-14T02:41:38;6.20;;;2.75;;
84527;SDS011;74768;51.152;6.196;2024-02-14T02:44:04;5.23;;;2.37;;
84527;SDS011;74768;51.152;6.196;2024-02-14T02:46:31;3.00;;;2.10;;
84527;SDS011;74768;51.152;6.196;2024-02-14T02:48:57;6.40;;;2.67;;
84527;SDS011;74768;51.152;6.196;2024-02-14T02:51:23;5.20;;;2.28;;
84527;SDS011;74768;51.152;6.196;2024-02-14T02:53:49;5.82;;;3.00;;
84527;SDS011;74768;51.152;6.196;2024-02-14T02:56:14;4.78;;;2.40;;
84527;SDS011;74768;51.152;6.196;2024-02-14T02:58:40;5.10;;;2.55;;
84527;SDS011;74768;51.152;6.196;2024-02-14T03:01:09;4.05;;;2.35;;
84527;SDS011;74768;51.152;6.196;2024-02-14T03:03:36;7.05;;;2.88;;
84527;SDS011;74768;51.152;6.196;2024-02-14T03:06:03;3.67;;;2.53;;
84527;SDS011;74768;51.152;6.196;2024-02-14T03:08:29;4.80;;;2.10;;
84527;SDS011;74768;51.152;6.196;2024-02-14T03:10:55;7.53;;;2.58;;
84527;SDS011;74768;51.152;6.196;2024-02-14T03:13:27;5.82;;;2.60;;
84527;SDS011;74768;51.152;6.196;2024-02-14T03:15:53;4.50;;;2.15;;
84527;SDS011;74768;51.152;6.196;2024-02-14T03:18:18;4.70;;;2.65;;
84527;SDS011;74768;51.152;6.196;2024-02-14T03:20:44;5.73;;;2.60;;
84527;SDS011;74768;51.152;6.196;2024-02-14T03:23:09;4.05;;;2.50;;
84527;SDS011;74768;51.152;6.196;2024-02-14T03:25:34;3.93;;;2.33;;
84527;SDS011;74768;51.152;6.196;2024-02-14T03:28:01;4.88;;;2.70;;
84527;SDS011;74768;51.152;6.196;2024-02-14T03:30:30;6.28;;;2.85;;
84527;SDS011;74768;51.152;6.196;2024-02-14T03:32:58;8.25;;;3.83;;
84527;SDS011;74768;51.152;6.196;2024-02-14T03:35:24;6.63;;;2.73;;
84527;SDS011;74768;51.152;6.196;2024-02-14T03:37:51;5.70;;;2.67;;
84527;SDS011;74768;51.152;6.196;2024-02-14T03:40:18;4.90;;;2.70;;
84527;SDS011;74768;51.152;6.196;2024-02-14T03:42:45;5.45;;;2.92;;
84527;SDS011;74768;51.152;6.196;2024-02-14T03:45:11;4.78;;;2.80;;
84527;SDS011;74768;51.152;6.196;2024-02-14T03:47:36;4.25;;;2.55;;
84527;SDS011;74768;51.152;6.196;2024-02-14T03:50:04;5.28;;;2.60;;
84527;SDS011;74768;51.152;6.196;2024-02-14T03:52:30;4.20;;;2.60;;
84527;SDS011;74768;51.152;6.196;2024-02-14T03:55:01;7.88;;;2.70;;
84527;SDS011;74768;51.152;6.196;2024-02-14T03:57:27;3.70;;;2.60;;
84527;SDS011;74768;51.152;6.196;2024-02-14T03:59:59;3.70;;;2.50;;
84527;SDS011;74768;51.152;6.196;2024-02-14T04:02:28;4.13;;;2.38;;
84527;SDS011;74768;51.152;6.196;2024-02-14T04:04:54;7.40;;;2.58;;
84527;SDS011;74768;51.152;6.196;2024-02-14T04:07:19;8.17;;;2.77;;
84527;SDS011;74768;51.152;6.196;2024-02-14T04:09:45;6.10;;;2.87;;
84527;SDS011;74768;51.152;6.196;2024-02-14T04:12:10;3.88;;;2.35;;
84527;SDS011;74768;51.152;6.196;2024-02-14T04:14:36;4.22;;;2.60;;
84527;SDS011;74768;51.152;6.196;2024-02-14T04:17:02;5.00;;;2.60;;
84527;SDS011;74768;51.152;6.196;2024-02-14T04:19:28;5.40;;;2.80;;
84527;SDS011;74768;51.152;6.196;2024-02-14T04:21:54;2.93;;;2.23;;
84527;SDS011;74768;51.152;6.196;2024-02-14T04:24:19;7.18;;;3.35;;
84527;SDS011;74768;51.152;6.196;2024-02-14T04:26:45;7.97;;;2.85;;
84527;SDS011;74768;51.152;6.196;2024-02-14T04:29:13;6.68;;;3.03;;
84527;SDS011;74768;51.152;6.196;2024-02-14T04:31:38;4.20;;;2.73;;
84527;SDS011;74768;51.152;6.196;2024-02-14T04:34:03;3.63;;;2.70;;
84527;SDS011;74768;51.152;6.196;2024-02-14T04:36:30;7.75;;;2.97;;
84527;SDS011;74768;51.152;6.196;2024-02-14T04:38:56;4.60;;;3.05;;
84527;SDS011;74768;51.152;6.196;2024-02-14T04:41:22;4.32;;;2.72;;
84527;SDS011;74768;51.152;6.196;2024-02-14T04:43:48;7.57;;;3.53;;
84527;SDS011;74768;51.152;6.196;2024-02-14T04:46:13;4.50;;;3.30;;
84527;SDS011;74768;51.152;6.196;2024-02-14T04:48:38;5.07;;;3.08;;
84527;SDS011;74768;51.152;6.196;2024-02-14T04:51:04;6.90;;;3.88;;
84527;SDS011;74768;51.152;6.196;2024-02-14T04:53:30;8.15;;;3.97;;
84527;SDS011;74768;51.152;6.196;2024-02-14T04:55:58;11.52;;;4.05;;
84527;SDS011;74768;51.152;6.196;2024-02-14T04:58:24;7.75;;;4.72;;
84527;SDS011;74768;51.152;6.196;2024-02-14T05:00:49;8.40;;;4.35;;
84527;SDS011;74768;51.152;6.196;2024-02-14T05:03:15;6.30;;;3.83;;
84527;SDS011;74768;51.152;6.196;2024-02-14T05:05:40;6.60;;;4.45;;
84527;SDS011;74768;51.152;6.196;2024-02-14T05:08:06;9.45;;;4.60;;
84527;SDS011;74768;51.152;6.196;2024-02-14T05:10:32;8.27;;;4.57;;
84527;SDS011;74768;51.152;6.196;2024-02-14T05:12:57;6.95;;;3.97;;
84527;SDS011;74768;51.152;6.196;2024-02-14T05:15:23;6.63;;;4.18;;
84527;SDS011;74768;51.152;6.196;2024-02-14T05:17:48;7.78;;;4.35;;
84527;SDS011;74768;51.152;6.196;2024-02-14T05:20:14;8.60;;;4.45;;
84527;SDS011;74768;51.152;6.196;2024-02-14T05:22:40;14.70;;;5.32;;
84527;SDS011;74768;51.152;6.196;2024-02-14T05:25:06;8.52;;;4.55;;
84527;SDS011;74768;51.152;6.196;2024-02-14T05:27:35;7.20;;;4.40;;
84527;SDS011;74768;51.152;6.196;2024-02-14T05:30:03;6.75;;;4.22;;
84527;SDS011;74768;51.152;6.196;2024-02-14T05:32:34;8.48;;;4.95;;
84527;SDS011;74768;51.152;6.196;2024-02-14T05:35:00;9.07;;;4.63;;
84527;SDS011;74768;51.152;6.196;2024-02-14T05:37:26;7.72;;;5.15;;
84527;SDS011;74768;51.152;6.196;2024-02-14T05:39:54;7.95;;;4.90;;
84527;SDS011;74768;51.152;6.196;2024-02-14T05:42:20;7.03;;;4.32;;
84527;SDS011;74768;51.152;6.196;2024-02-14T05:44:46;7.18;;;4.65;;
84527;SDS011;74768;51.152;6.196;2024-02-14T05:47:11;7.95;;;4.68;;
84527;SDS011;74768;51.152;6.196;2024-02-14T05:49:40;7.38;;;4.55;;
84527;SDS011;74768;51.152;6.196;2024-02-14T05:52:06;10.23;;;4.72;;
84527;SDS011;74768;51.152;6.196;2024-02-14T05:54:32;8.60;;;4.95;;
84527;SDS011;74768;51.152;6.196;2024-02-14T05:56:57;6.80;;;4.50;;
84527;SDS011;74768;51.152;6.196;2024-02-14T05:59:23;8.40;;;4.30;;
84527;SDS011;74768;51.152;6.196;2024-02-14T06:01:48;8.75;;;5.55;;
84527;SDS011;74768;51.152;6.196;2024-02-14T06:04:13;8.02;;;4.45;;
84527;SDS011;74768;51.152;6.196;2024-02-14T06:06:39;7.23;;;4.83;;
84527;SDS011;74768;51.152;6.196;2024-02-14T06:09:04;9.43;;;4.97;;
84527;SDS011;74768;51.152;6.196;2024-02-14T06:11:34;10.82;;;4.78;;
84527;SDS011;74768;51.152;6.196;2024-02-14T06:14:00;7.88;;;5.10;;
84527;SDS011;74768;51.152;6.196;2024-02-14T06:16:25;7.83;;;5.27;;
84527;SDS011;74768;51.152;6.196;2024-02-14T06:18:51;8.27;;;4.60;;
84527;SDS011;74768;51.152;6.196;2024-02-14T06:21:16;7.60;;;4.30;;
84527;SDS011;74768;51.152;6.196;2024-02-14T06:23:41;6.60;;;4.37;;
84527;SDS011;74768;51.152;6.196;2024-02-14T06:26:06;8.10;;;4.25;;
84527;SDS011;74768;51.152;6.196;2024-02-14T06:28:32;7.38;;;4.38;;
84527;SDS011;74768;51.152;6.196;2024-02-14T06:30:57;8.68;;;4.75;;
84527;SDS011;74768;51.152;6.196;2024-02-14T06:33:22;6.63;;;4.50;;
84527;SDS011;74768;51.152;6.196;2024-02-14T06:35:48;7.65;;;5.43;;
84527;SDS011;74768;51.152;6.196;2024-02-14T06:38:13;6.53;;;4.72;;
84527;SDS011;74768;51.152;6.196;2024-02-14T06:40:39;6.93;;;5.17;;
84527;SDS011;74768;51.152;6.196;2024-02-14T06:43:05;6.30;;;4.40;;
84527;SDS011;74768;51.152;6.196;2024-02-14T06:45:31;6.43;;;4.57;;
84527;SDS011;74768;51.152;6.196;2024-02-14T06:47:57;6.80;;;4.40;;
84527;SDS011;74768;51.152;6.196;2024-02-14T06:50:22;9.50;;;4.67;;
84527;SDS011;74768;51.152;6.196;2024-02-14T06:52:50;5.72;;;3.95;;
84527;SDS011;74768;51.152;6.196;2024-02-14T06:55:16;7.00;;;3.95;;
84527;SDS011;74768;51.152;6.196;2024-02-14T06:57:41;5.82;;;3.67;;
84527;SDS011;74768;51.152;6.196;2024-02-14T07:00:07;9.10;;;4.13;;
84527;SDS011;74768;51.152;6.196;2024-02-14T07:02:33;6.68;;;4.20;;
84527;SDS011;74768;51.152;6.196;2024-02-14T07:04:59;6.85;;;4.03;;
84527;SDS011;74768;51.152;6.196;2024-02-14T07:07:24;6.00;;;3.42;;
84527;SDS011;74768;51.152;6.196;2024-02-14T07:09:50;6.80;;;3.55;;
84527;SDS011;74768;51.152;6.196;2024-02-14T07:12:16;8.18;;;4.28;;
84527;SDS011;74768;51.152;6.196;2024-02-14T07:14:41;4.40;;;3.17;;
84527;SDS011;74768;51.152;6.196;2024-02-14T07:17:07;7.10;;;3.33;;
84527;SDS011;74768;51.152;6.196;2024-02-14T07:19:32;7.68;;;3.53;;
84527;SDS011;74768;51.152;6.196;2024-02-14T07:21:57;5.00;;;3.40;;
84527;SDS011;74768;51.152;6.196;2024-02-14T07:24:23;5.13;;;3.37;;
84527;SDS011;74768;51.152;6.196;2024-02-14T07:26:48;5.07;;;3.50;;
84527;SDS011;74768;51.152;6.196;2024-02-14T07:29:13;5.50;;;3.93;;
84527;SDS011;74768;51.152;6.196;2024-02-14T07:31:38;10.40;;;3.72;;
84527;SDS011;74768;51.152;6.196;2024-02-14T07:34:04;4.63;;;3.05;;
84527;SDS011;74768;51.152;6.196;2024-02-14T07:36:29;7.10;;;3.17;;
84527;SDS011;74768;51.152;6.196;2024-02-14T07:38:55;8.35;;;3.78;;
84527;SDS011;74768;51.152;6.196;2024-02-14T07:41:21;6.03;;;3.47;;
84527;SDS011;74768;51.152;6.196;2024-02-14T07:43:46;4.65;;;2.83;;
84527;SDS011;74768;51.152;6.196;2024-02-14T07:46:16;6.28;;;3.22;;
84527;SDS011;74768;51.152;6.196;2024-02-14T07:48:45;8.88;;;4.10;;
84527;SDS011;74768;51.152;6.196;2024-02-14T07:51:11;8.40;;;3.45;;
84527;SDS011;74768;51.152;6.196;2024-02-14T07:53:37;6.85;;;3.03;;
84527;SDS011;74768;51.152;6.196;2024-02-14T07:56:02;4.37;;;2.93;;
84527;SDS011;74768;51.152;6.196;2024-02-14T07:58:27;6.50;;;3.03;;
84527;SDS011;74768;51.152;6.196;2024-02-14T08:00:53;3.57;;;2.20;;
84527;SDS011;74768;51.152;6.196;2024-02-14T08:03:18;7.43;;;3.10;;
84527;SDS011;74768;51.152;6.196;2024-02-14T08:05:43;8.13;;;2.93;;
84527;SDS011;74768;51.152;6.196;2024-02-14T08:08:08;5.13;;;3.30;;
84527;SDS011;74768;51.152;6.196;2024-02-14T08:10:34;4.57;;;2.90;;
84527;SDS011;74768;51.152;6.196;2024-02-14T08:12:59;7.30;;;3.08;;
84527;SDS011;74768;51.152;6.196;2024-02-14T08:15:24;6.70;;;2.75;;
84527;SDS011;74768;51.152;6.196;2024-02-14T08:17:50;7.10;;;2.43;;
84527;SDS011;74768;51.152;6.196;2024-02-14T08:20:15;5.13;;;2.60;;
84527;SDS011;74768;51.152;6.196;2024-02-14T08:22:40;3.47;;;2.40;;
84527;SDS011;74768;51.152;6.196;2024-02-14T08:25:06;4.75;;;3.13;;
84527;SDS011;74768;51.152;6.196;2024-02-14T08:27:32;10.98;;;2.80;;
84527;SDS011;74768;51.152;6.196;2024-02-14T08:29:57;6.90;;;2.55;;
84527;SDS011;74768;51.152;6.196;2024-02-14T08:32:22;4.33;;;2.27;;
84527;SDS011;74768;51.152;6.196;2024-02-14T08:34:48;4.97;;;2.53;;
84527;SDS011;74768;51.152;6.196;2024-02-14T08:37:15;6.50;;;2.50;;
84527;SDS011;74768;51.152;6.196;2024-02-14T08:39:40;3.65;;;2.47;;
84527;SDS011;74768;51.152;6.196;2024-02-14T08:42:06;4.38;;;2.30;;
84527;SDS011;74768;51.152;6.196;2024-02-14T08:44:33;4.60;;;2.33;;
84527;SDS011;74768;51.152;6.196;2024-02-14T08:46:59;5.18;;;2.30;;
84527;SDS011;74768;51.152;6.196;2024-02-14T08:49:24;8.88;;;2.85;;
84527;SDS011;74768;51.152;6.196;2024-02-14T08:51:50;3.03;;;2.17;;
84527;SDS011;74768;51.152;6.196;2024-02-14T08:54:15;6.07;;;2.30;;
84527;SDS011;74768;51.152;6.196;2024-02-14T08:56:41;4.95;;;2.30;;
84527;SDS011;74768;51.152;6.196;2024-02-14T08:59:06;4.82;;;2.28;;
84527;SDS011;74768;51.152;6.196;2024-02-14T09:01:33;4.43;;;2.25;;
84527;SDS011;74768;51.152;6.196;2024-02-14T09:03:59;4.15;;;2.15;;
84527;SDS011;74768;51.152;6.196;2024-02-14T09:06:24;5.82;;;2.25;;
84527;SDS011;74768;51.152;6.196;2024-02-14T09:08:51;4.93;;;2.30;;
84527;SDS011;74768;51.152;6.196;2024-02-14T09:11:17;8.07;;;2.38;;
84527;SDS011;74768;51.152;6.196;2024-02-14T09:13:42;4.07;;;2.28;;
84527;SDS011;74768;51.152;6.196;2024-02-14T09:16:08;4.75;;;1.98;;
84527;SDS011;74768;51.152;6.196;2024-02-14T09:18:34;4.75;;;2.05;;
84527;SDS011;74768;51.152;6.196;2024-02-14T09:21:00;4.60;;;2.00;;
84527;SDS011;74768;51.152;6.196;2024-02-14T09:23:26;2.85;;;2.00;;
84527;SDS011;74768;51.152;6.196;2024-02-14T09:25:51;7.80;;;2.83;;
84527;SDS011;74768;51.152;6.196;2024-02-14T09:28:17;5.15;;;1.80;;
84527;SDS011;74768;51.152;6.196;2024-02-14T09:30:43;4.47;;;1.85;;
84527;SDS011;74768;51.152;6.196;2024-02-14T09:33:08;3.07;;;1.93;;
84527;SDS011;74768;51.152;6.196;2024-02-14T09:35:34;3.30;;;2.07;;
84527;SDS011;74768;51.152;6.196;2024-02-14T09:38:00;4.00;;;2.10;;
84527;SDS011;74768;51.152;6.196;2024-02-14T09:40:26;3.67;;;2.10;;
84527;SDS011;74768;51.152;6.196;2024-02-14T09:42:54;5.20;;;2.90;;
84527;SDS011;74768;51.152;6.196;2024-02-14T09:45:23;4.32;;;2.38;;
84527;SDS011;74768;51.152;6.196;2024-02-14T09:47:51;6.35;;;2.28;;
84527;SDS011;74768;51.152;6.196;2024-02-14T09:50:17;3.58;;;2.00;;
84527;SDS011;74768;51.152;6.196;2024-02-14T09:52:46;5.47;;;2.13;;
84527;SDS011;74768;51.152;6.196;2024-02-14T09:55:14;7.97;;;2.65;;
84527;SDS011;74768;51.152;6.196;2024-02-14T09:57:41;5.97;;;2.17;;
84527;SDS011;74768;51.152;6.196;2024-02-14T10:00:10;3.80;;;2.25;;
84527;SDS011;74768;51.152;6.196;2024-02-14T10:02:36;5.25;;;2.10;;
84527;SDS011;74768;51.152;6.196;2024-02-14T10:05:02;5.93;;;2.15;;
84527;SDS011;74768;51.152;6.196;2024-02-14T10:07:27;6.68;;;2.38;;
84527;SDS011;74768;51.152;6.196;2024-02-14T10:09:53;7.30;;;2.23;;
84527;SDS011;74768;51.152;6.196;2024-02-14T10:12:19;6.88;;;2.53;;
84527;SDS011;74768;51.152;6.196;2024-02-14T10:14:44;3.75;;;2.25;;
84527;SDS011;74768;51.152;6.196;2024-02-14T10:17:16;5.40;;;2.75;;
84527;SDS011;74768;51.152;6.196;2024-02-14T10:19:54;7.93;;;2.47;;
84527;SDS011;74768;51.152;6.196;2024-02-14T10:22:23;3.80;;;2.00;;
84527;SDS011;74768;51.152;6.196;2024-02-14T10:24:50;5.85;;;1.95;;
84527;SDS011;74768;51.152;6.196;2024-02-14T10:27:15;3.78;;;2.55;;
84527;SDS011;74768;51.152;6.196;2024-02-14T10:29:44;5.07;;;2.00;;
84527;SDS011;74768;51.152;6.196;2024-02-14T10:32:09;3.67;;;2.08;;
84527;SDS011;74768;51.152;6.196;2024-02-14T10:34:34;4.28;;;2.33;;
84527;SDS011;74768;51.152;6.196;2024-02-14T10:37:02;7.78;;;2.25;;
84527;SDS011;74768;51.152;6.196;2024-02-14T10:39:29;7.95;;;2.20;;
84527;SDS011;74768;51.152;6.196;2024-02-14T10:41:56;2.63;;;1.77;;
84527;SDS011;74768;51.152;6.196;2024-02-14T10:44:21;3.42;;;1.75;;
84527;SDS011;74768;51.152;6.196;2024-02-14T10:46:46;7.87;;;2.00;;
84527;SDS011;74768;51.152;6.196;2024-02-14T10:49:17;3.88;;;1.95;;
84527;SDS011;74768;51.152;6.196;2024-02-14T10:51:44;6.80;;;4.28;;
84527;SDS011;74768;51.152;6.196;2024-02-14T10:54:13;7.88;;;3.22;;
84527;SDS011;74768;51.152;6.196;2024-02-14T10:56:42;3.97;;;2.60;;
84527;SDS011;74768;51.152;6.196;2024-02-14T10:59:10;7.97;;;1.92;;
84527;SDS011;74768;51.152;6.196;2024-02-14T11:01:39;2.97;;;1.90;;
84527;SDS011;74768;51.152;6.196;2024-02-14T11:04:06;4.90;;;2.92;;
84527;SDS011;74768;51.152;6.196;2024-02-14T11:06:32;5.32;;;2.95;;
84527;SDS011;74768;51.152;6.196;2024-02-14T11:08:59;3.33;;;2.15;;
84527;SDS011;74768;51.152;6.196;2024-02-14T11:11:28;4.85;;;2.72;;
84527;SDS011;74768;51.152;6.196;2024-02-14T11:13:55;3.95;;;1.98;;
84527;SDS011;74768;51.152;6.196;2024-02-14T11:16:27;5.80;;;2.28;;
84527;SDS011;74768;51.152;6.196;2024-02-14T11:19:09;3.85;;;1.90;;
84527;SDS011;74768;51.152;6.196;2024-02-14T11:21:45;13.25;;;7.50;;
84527;SDS011;74768;51.152;6.196;2024-02-14T11:24:12;4.22;;;2.30;;
84527;SDS011;74768;51.152;6.196;2024-02-14T11:26:49;2.30;;;1.80;;
84527;SDS011;74768;51.152;6.196;2024-02-14T11:29:19;6.20;;;2.50;;
84527;SDS011;74768;51.152;6.196;2024-02-14T11:31:45;10.43;;;5.72;;
84527;SDS011;74768;51.152;6.196;2024-02-14T11:34:13;4.15;;;2.10;;
84527;SDS011;74768;51.152;6.196;2024-02-14T11:36:42;10.55;;;3.03;;
84527;SDS011;74768;51.152;6.196;2024-02-14T11:39:09;6.00;;;4.40;;
84527;SDS011;74768;51.152;6.196;2024-02-14T11:41:34;3.17;;;2.10;;
84527;SDS011;74768;51.152;6.196;2024-02-14T11:44:06;3.88;;;2.15;;
84527;SDS011;74768;51.152;6.196;2024-02-14T11:46:31;2.53;;;1.92;;
84527;SDS011;74768;51.152;6.196;2024-02-14T11:48:58;9.23;;;5.03;;
84527;SDS011;74768;51.152;6.196;2024-02-14T11:51:26;6.13;;;2.60;;
84527;SDS011;74768;51.152;6.196;2024-02-14T11:53:52;3.42;;;2.55;;
84527;SDS011;74768;51.152;6.196;2024-02-14T11:56:18;5.50;;;1.95;;
84527;SDS011;74768;51.152;6.196;2024-02-14T11:58:47;6.00;;;3.00;;
84527;SDS011;74768;51.152;6.196;2024-02-14T12:01:15;4.65;;;2.22;;
84527;SDS011;74768;51.152;6.196;2024-02-14T12:03:42;3.53;;;2.13;;
84527;SDS011;74768;51.152;6.196;2024-02-14T12:06:07;5.57;;;2.60;;
84527;SDS011;74768;51.152;6.196;2024-02-14T12:08:33;7.53;;;2.40;;
84527;SDS011;74768;51.152;6.196;2024-02-14T12:10:59;7.07;;;3.80;;
84527;SDS011;74768;51.152;6.196;2024-02-14T12:13:24;4.88;;;2.95;;
84527;SDS011;74768;51.152;6.196;2024-02-14T12:15:50;5.50;;;2.60;;
84527;SDS011;74768;51.152;6.196;2024-02-14T12:18:16;2.55;;;1.95;;
84527;SDS011;74768;51.152;6.196;2024-02-14T12:20:43;5.10;;;2.45;;
84527;SDS011;74768;51.152;6.196;2024-02-14T12:23:13;3.45;;;1.98;;
84527;SDS011;74768;51.152;6.196;2024-02-14T12:25:42;2.72;;;1.92;;
84527;SDS011;74768;51.152;6.196;2024-02-14T12:28:07;5.40;;;2.00;;
84527;SDS011;74768;51.152;6.196;2024-02-14T12:30:51;5.18;;;1.90;;
84527;SDS011;74768;51.152;6.196;2024-02-14T12:33:21;2.28;;;1.73;;
84527;SDS011;74768;51.152;6.196;2024-02-14T12:35:47;2.80;;;1.60;;
84527;SDS011;74768;51.152;6.196;2024-02-14T12:38:15;2.28;;;1.60;;
84527;SDS011;74768;51.152;6.196;2024-02-14T12:40:42;2.65;;;1.65;;
84527;SDS011;74768;51.152;6.196;2024-02-14T12:43:09;2.58;;;1.55;;
84527;SDS011;74768;51.152;6.196;2024-02-14T12:45:35;2.65;;;1.90;;
84527;SDS011;74768;51.152;6.196;2024-02-14T12:48:01;2.97;;;1.80;;
84527;SDS011;74768;51.152;6.196;2024-02-14T12:50:27;3.40;;;1.90;;
84527;SDS011;74768;51.152;6.196;2024-02-14T12:52:52;4.93;;;2.60;;
84527;SDS011;74768;51.152;6.196;2024-02-14T12:55:18;3.10;;;1.70;;
84527;SDS011;74768;51.152;6.196;2024-02-14T12:57:44;3.35;;;1.50;;
84527;SDS011;74768;51.152;6.196;2024-02-14T13:00:10;3.60;;;1.80;;
84527;SDS011;74768;51.152;6.196;2024-02-14T13:02:36;3.15;;;1.70;;
84527;SDS011;74768;51.152;6.196;2024-02-14T13:05:03;2.05;;;1.55;;
84527;SDS011;74768;51.152;6.196;2024-02-14T13:07:29;2.70;;;1.80;;
84527;SDS011;74768;51.152;6.196;2024-02-14T13:09:55;1.80;;;1.35;;
84527;SDS011;74768;51.152;6.196;2024-02-14T13:12:20;2.10;;;1.67;;
84527;SDS011;74768;51.152;6.196;2024-02-14T13:14:46;2.50;;;1.60;;
84527;SDS011;74768;51.152;6.196;2024-02-14T13:17:12;3.13;;;1.80;;
84527;SDS011;74768;51.152;6.196;2024-02-14T13:19:37;2.33;;;1.55;;
84527;SDS011;74768;51.152;6.196;2024-02-14T13:22:04;2.78;;;1.40;;
84527;SDS011;74768;51.152;6.196;2024-02-14T13:24:29;1.83;;;1.23;;
84527;SDS011;74768;51.152;6.196;2024-02-14T13:26:55;2.15;;;1.50;;
84527;SDS011;74768;51.152;6.196;2024-02-14T13:29:22;2.88;;;1.38;;
84527;SDS011;74768;51.152;6.196;2024-02-14T13:31:49;2.35;;;1.40;;
84527;SDS011;74768;51.152;6.196;2024-02-14T13:34:15;2.65;;;1.60;;
84527;SDS011;74768;51.152;6.196;2024-02-14T13:36:40;4.53;;;1.55;;
84527;SDS011;74768;51.152;6.196;2024-02-14T13:39:06;1.52;;;1.30;;
84527;SDS011;74768;51.152;6.196;2024-02-14T13:41:32;1.65;;;1.20;;
84527;SDS011;74768;51.152;6.196;2024-02-14T13:43:58;2.50;;;1.30;;
84527;SDS011;74768;51.152;6.196;2024-02-14T13:46:23;3.23;;;1.40;;
84527;SDS011;74768;51.152;6.196;2024-02-14T13:48:51;2.85;;;1.40;;
84527;SDS011;74768;51.152;6.196;2024-02-14T13:51:16;2.88;;;1.70;;
84527;SDS011;74768;51.152;6.196;2024-02-14T13:53:41;2.07;;;1.80;;
84527;SDS011;74768;51.152;6.196;2024-02-14T13:56:07;1.83;;;1.35;;
84527;SDS011;74768;51.152;6.196;2024-02-14T13:58:32;1.95;;;1.48;;
84527;SDS011;74768;51.152;6.196;2024-02-14T14:00:58;2.05;;;1.35;;
84527;SDS011;74768;51.152;6.196;2024-02-14T14:03:24;1.52;;;1.20;;
84527;SDS011;74768;51.152;6.196;2024-02-14T14:05:49;1.80;;;1.30;;
84527;SDS011;74768;51.152;6.196;2024-02-14T14:08:15;2.05;;;1.42;;
84527;SDS011;74768;51.152;6.196;2024-02-14T14:10:40;1.65;;;1.23;;
84527;SDS011;74768;51.152;6.196;2024-02-14T14:13:08;1.98;;;1.30;;
84527;SDS011;74768;51.152;6.196;2024-02-14T14:15:34;1.63;;;1.52;;
84527;SDS011;74768;51.152;6.196;2024-02-14T14:18:00;2.22;;;1.67;;
84527;SDS011;74768;51.152;6.196;2024-02-14T14:20:25;4.27;;;1.67;;
84527;SDS011;74768;51.152;6.196;2024-02-14T14:22:50;1.85;;;1.50;;
84527;SDS011;74768;51.152;6.196;2024-02-14T14:25:17;2.38;;;1.90;;
84527;SDS011;74768;51.152;6.196;2024-02-14T14:27:42;2.22;;;1.55;;
84527;SDS011;74768;51.152;6.196;2024-02-14T14:30:08;2.25;;;1.60;;
84527;SDS011;74768;51.152;6.196;2024-02-14T14:32:34;3.22;;;1.70;;
84527;SDS011;74768;51.152;6.196;2024-02-14T14:34:59;3.03;;;1.90;;
84527;SDS011;74768;51.152;6.196;2024-02-14T14:37:24;4.50;;;2.87;;
84527;SDS011;74768;51.152;6.196;2024-02-14T14:39:49;2.37;;;1.70;;
84527;SDS011;74768;51.152;6.196;2024-02-14T14:42:15;3.10;;;2.17;;